Flag for Russia

Past Weather in Chita, Russia — Yesterday and Last 2 Weeks

Currently: 27 °F. Chilly. (Weather station: Chita Airport, Russia). See more current weather

Past Weather in Chita — Graph

°F

Chita Temperature Yesterday

Maximum temperature yesterday: 37 °F (at 12:30 pm)
Minimum temperature yesterday: 27 °F (at 6:00 am)
Average temperature yesterday: 32 °F

High & Low Weather Summary for the Past Weeks

 TemperatureHumidityPressure
High54 °F (Oct 19, 4:00 pm)100% (Oct 19, 7:30 am)30.21 "Hg (Oct 19, 7:30 am)
Low12 °F (Oct 28, 6:00 am)27% (Oct 21, 2:00 pm)29.71 "Hg (Oct 20, 4:30 am)
Average30 °F65%30.00 "Hg
* Reported Oct 17 3:00 am — Nov 1 3:30 am, Chita. Weather by CustomWeather, © 2020

Note: Actual official high and low records may vary slightly from our data, if they occured in-between our weather recording intervals... More about our weather records

Chita Weather History for the Previous 24 Hours

Scroll right to see more
 ConditionsComfort  
Time TempWeatherWind HumidityBarometerVisibility
3:30 am
Sun, Nov 1
27 °FChilly.6 mph59%29.95 "HgN/A
3:00 am27 °FChilly.8 mph59%29.95 "HgN/A
2:30 am27 °FChilly.10 mph59%29.95 "HgN/A
2:00 am27 °FChilly.13 mph59%29.95 "HgN/A
1:30 am27 °FChilly.10 mph59%29.95 "HgN/A
1:00 am27 °FChilly.10 mph59%29.95 "HgN/A
12:30 am28 °FChilly.8 mph55%29.95 "HgN/A
12:00 am28 °FChilly.8 mph59%29.95 "HgN/A
11:30 pm
Sat, Oct 31
28 °FChilly.3 mph64%29.95 "HgN/A
11:00 pm28 °FChilly.6 mph64%29.95 "HgN/A
10:30 pm30 °FChilly.8 mph59%29.92 "HgN/A
10:00 pm30 °FChilly.10 mph64%29.92 "HgN/A
9:30 pm30 °FPassing clouds.10 mph69%29.92 "HgN/A
9:00 pm30 °FPassing clouds.10 mph75%29.92 "HgN/A
8:30 pm32 °FPassing clouds.6 mph69%29.92 "HgN/A
8:00 pm32 °FPassing clouds.8 mph69%29.92 "HgN/A
7:30 pm32 °FPassing clouds.8 mph64%29.89 "HgN/A
7:00 pm32 °FPassing clouds.6 mph64%29.89 "HgN/A
6:30 pm34 °FPassing clouds.6 mph60%29.89 "HgN/A
6:00 pm34 °FPassing clouds.8 mph51%29.89 "HgN/A
5:30 pm34 °FScattered clouds.3 mph51%29.86 "HgN/A
5:00 pm36 °FScattered clouds.8 mph44%29.86 "HgN/A
4:30 pm36 °FPassing clouds.10 mph44%29.86 "HgN/A
3:30 pm37 °FClear.8 mph38%29.83 "HgN/A
3:00 pm37 °FClear.3 mph33%29.83 "HgN/A
2:30 pm37 °FClear.10 mph33%29.83 "HgN/A
2:00 pm37 °FClear.10 mph33%29.83 "HgN/A
1:30 pm37 °FPassing clouds.10 mph33%29.86 "HgN/A
1:00 pm37 °FPassing clouds.8 mph33%29.86 "HgN/A
12:30 pm37 °FPassing clouds.6 mph35%29.86 "HgN/A
12:00 pm36 °FPassing clouds.3 mph38%29.86 "HgN/A
11:30 am34 °FPassing clouds.1 mph44%29.86 "HgN/A
11:00 am36 °FPassing clouds.1 mph44%29.86 "HgN/A
10:30 am32 °FPassing clouds.3 mph55%29.86 "HgN/A
10:00 am30 °FPassing clouds.3 mph64%29.89 "HgN/A
9:30 am28 °FPassing clouds.3 mph69%29.86 "HgN/A
8:30 am28 °FPassing clouds.6 mph69%29.86 "HgN/A
8:00 am27 °FClear.3 mph74%29.86 "HgN/A
7:30 am28 °FClear.10 mph69%29.83 "HgN/A
7:00 am28 °FClear.10 mph69%29.83 "HgN/A
6:30 am30 °FClear.3 mph64%29.83 "HgN/A
6:00 am27 °FClear.3 mph74%29.83 "HgN/A
5:30 am28 °FClear.10 mph69%29.83 "HgN/A
5:00 am30 °FPassing clouds.8 mph64%29.83 "HgN/A
4:30 am30 °FPassing clouds.6 mph64%29.83 "HgN/A
4:00 am30 °FPassing clouds.6 mph64%29.83 "HgN/A
Weather by CustomWeather, © 2020

See weather overview